Record high temperature 35.7°C Record low temperature -13.1°C Record high gust 62.9 km/h Record high average 34.6 km/h Record daily rain 34.8 mm Record low windchill -16.1°C Record high barometer 1041.5 hPa Record low barometer 980.8 hPa
Daily high pressure 1021.8 hPa Daily low pressure 1021.2 hPa Daily low windchill 6.4°C Daily high heat index 7.3°C Daily high gust speed 3.7 kmh NNW Daily high average speed 2.3 kmh ONO
Wetterdaten
LETZTE AKTUALISIERUNG UM: 05:15 DATUM: 16 Oktober 2021, time of next update: 05:30
Aktuelles Wettermostly cloudy/Night Aktuelle Temperatur 6.9°C (44.4°F), Apparent temp 6.3°C
Höchsttemperatur (seit Mitternacht)7.3°C um: 04:12 Tiefsttemperatur (seit Mitternacht)6.4°C um: 00:00
Windgeschwindigkeit (10 Minuten )0.2 kmh (0.1 kts) Windrichtung (Dir) (10 Minuten )E (90°)
Windchill Temperatur 6.9°C Windspitzen (letzte Std)3.3 kmh (1.8 kts) um: 05:05
Windspitzen (seit Mitternacht)3.7 kmh (2.0 kts) um: 01:16 Höchstes Windmittel / Minute (seit Mitternacht)2.3 kmh (1.2 kts) um: 01:17
Regenmenge (letzte Std)0.0 mm Regenmenge (seit Mitternacht)0.0 mm (0.00 in.)---
Regenmenge diesen Monat 21.6 mm (0.85 in.) Regenmenge seit Jahresbeginn 603.4 mm (23.76 in.)
Höchste Regenmenge pro Minute (letzte Std)0.0 mm/min Höchste Regenmenge pro Stunde (letzte 6 Std)0.0 mm/stunde
Regenmenge Gestern 0.2 mm Taupunkt 6.1°C (Wet Bulb :6.6°C )
Luftfeuchtigkeit 95 %, Humidex 6.6°C Aktueller Luftdruck (auf Meereshöhe bezogen)1021.4 hPa
Luftdrucktendenz +0.2 hPa (letzte Std) Trend (letzte 1 Std)gleichbleibend
Luftdrucktendenz (letzte 12 Std)+2.3 hPa Luftdrucktendenz (letzte 6 Std)+0.1 hPa
Maximum Soil temperature (seit Mitternacht) 11.7°C Minimum Soil temperature(seit Mitternacht)11.7°C
Current Soil temperature 12°C
Current Solar 0 W/m²
Maximum solar (seit Mitternacht) 0 W/m² Minimum solar(seit Mitternacht)0 W/m²
Current 00:00 hours of sunshine today, current sky: Nicht bestimmbar (Nachtzeit)/Dry/Cloudy with clear patches
Sunshine hours for the year: 1120:57 hrs Sunshine hours for the month: 38:14 hrs
Current evapotranspiration rate 0.1 mm per day. Yesterday's reading 1.0

Diese Seite wurde mit aktuellen Daten einer DAVIS VP Wetterstation erstellt. Drücken Sie bitte auf "Aktualisieren" oder "neu laden" um die neuesten Daten zu erhalten.


Latest Web Cam Image


Weather report/warning/Metars

Stuttgart-Echterdingen, Germany (EDDS) 48-41N 009-13E 391M
Oct 15, 2021 - 10:50 PM EDT / 2021.10.16 0250 UTC
Wind: Variable at 1 MPH (1 KT):0
Visibility: greater than 7 mile(s):0
Sky conditions: mostly cloudy
Temperature: 44 F (7 C)
Dew Point: 42 F (6 C)
Relative Humidity: 93%
Pressure (altimeter): 30.12 in. Hg (1020 hPa)
ob: EDDS 160250Z VRB01KT 9999 BKN008 BKN012 07/06 Q1020
cycle: 3
Augsburg, Germany (EDMA) 48-26N 010-56E 463M
Oct 15, 2021 - 10:50 PM EDT / 2021.10.16 0250 UTC
Wind: Calm:0
Visibility: greater than 7 mile(s):0
Sky conditions: mostly cloudy
Temperature: 41 F (5 C)
Dew Point: 41 F (5 C)
Relative Humidity: 100%
Pressure (altimeter): 30.12 in. Hg (1020 hPa)
ob: EDMA 160250Z AUTO 00000KT 9999 SCT020/// SCT033/// BKN071/// 05/05 Q1020
cycle: 3
Nuernberg, Germany (EDDN) 49-30N 011-03E 318M
Oct 15, 2021 - 10:50 PM EDT / 2021.10.16 0250 UTC
Wind: from the NNW (340 degrees) at 2 MPH (2 KT):0
Visibility: 1 mile(s):0
Sky conditions: partly cloudy
Weather: patches of fog; mist
Temperature: 37 F (3 C)
Dew Point: 37 F (3 C)
Relative Humidity: 100%
Pressure (altimeter): 30.15 in. Hg (1021 hPa)
ob: EDDN 160250Z 34002KT 2100 R28/0800U BCFG BR SCT001 03/03 Q1021
cycle: 3
Berlin-Tegel, Germany (EDDT) 52-34N 013-19E 37M
Nov 09, 2020 - 01:50 AM EST / 2020.11.09 0650 UTC
Wind: from the E (090 degrees) at 7 MPH (6 KT) (direction variable):0
Visibility: 1 mile(s):0
Sky conditions: overcast
Weather: mist
Temperature: 42 F (6 C)
Dew Point: 41 F (5 C)
Relative Humidity: 93%
Pressure (altimeter): 30.33 in. Hg (1027 hPa)
ob: EDDT 090650Z 09006KT 050V120 3000 BR OVC003 06/05 Q1027
cycle: 7
Friedrichshafen, Germany (EDNY) 47-40N 009-31E 424M
Oct 15, 2021 - 10:50 PM EDT / 2021.10.16 0250 UTC
Wind: from the E (090 degrees) at 5 MPH (4 KT):0
Visibility: greater than 7 mile(s):0
Temperature: 37 F (3 C)
Dew Point: 37 F (3 C)
Relative Humidity: 100%
Pressure (altimeter): 30.12 in. Hg (1020 hPa)
ob: EDNY 160250Z AUTO 09004KT 9999 // NCD 03/03 Q1020
cycle: 3
Hamburg-Finkenwerder, Germany (EDHI) 53-32N 009-50E 13M
Oct 15, 2021 - 10:50 PM EDT / 2021.10.16 0250 UTC
Wind: from the W (260 degrees) at 5 MPH (4 KT):0
Visibility: greater than 7 mile(s):0
Sky conditions: overcast
Temperature: 46 F (8 C)
Dew Point: 46 F (8 C)
Relative Humidity: 100%
Pressure (altimeter): 30.09 in. Hg (1019 hPa)
ob: EDHI 160250Z AUTO 26004KT 9999 // FEW040/// OVC058/// 08/08 Q1019
cycle: 3
Amsterdam Airport Schiphol, Netherlands (EHAM) 52-18N 004-46E -2M
Oct 15, 2021 - 10:55 PM EDT / 2021.10.16 0255 UTC
Wind: from the SW (220 degrees) at 3 MPH (3 KT):0
Visibility: greater than 7 mile(s):0
Sky conditions: mostly cloudy
Temperature: 50 F (10 C)
Dew Point: 44 F (7 C)
Relative Humidity: 81%
Pressure (altimeter): 30.15 in. Hg (1021 hPa)
ob: EHAM 160255Z 22003KT 9999 FEW035 BKN045 10/07 Q1021 NOSIG
cycle: 3
Stockholm/Skavsta, Sweden (ESKN) 58-47N 016-55E
Oct 15, 2021 - 10:50 PM EDT / 2021.10.16 0250 UTC
Wind: from the WSW (240 degrees) at 8 MPH (7 KT):0
Visibility: greater than 7 mile(s):0
Temperature: 33 F (1 C)
Windchill: 26 F (-3 C):1
Dew Point: 30 F (-1 C)
Relative Humidity: 86%
Pressure (altimeter): 29.65 in. Hg (1004 hPa)
ob: ESKN 160250Z 24007KT CAVOK 01/M01 Q1004
cycle: 3
Ramstein, Germany (ETAR) 49-26N 007-36E 237M
Oct 15, 2021 - 11:06 PM EDT / 2021.10.16 0306 UTC
Wind: Calm (direction variable):0
Visibility: less than 1 mile:0
Sky conditions: clear
Weather: fog
Temperature: 35 F (2 C)
Dew Point: 35 F (2 C)
Relative Humidity: 100%
Pressure (altimeter): 30.14 in. Hg (1020 hPa)
ob: ETAR 160306Z 00000KT 0400 R26/0450V0700 FG CLR 02/02 A3014 RMK AO2A SLP215 
cycle: 3
Laupheim, Germany (ETHL) 48-13N 009-55E 550M
Oct 15, 2021 - 10:20 PM EDT / 2021.10.16 0220 UTC
Wind: from the NW (320 degrees) at 1 MPH (1 KT):0
Visibility: greater than 7 mile(s):0
Sky conditions: mostly cloudy
Temperature: 41 F (5 C)
Dew Point: 41 F (5 C)
Relative Humidity: 100%
Pressure (altimeter): 30.12 in. Hg (1020 hPa)
ob: ETHL 160220Z 32001KT 9999 FEW041 BKN060 05/05 Q1020 BLU
cycle: 2
Gran Canaria - Canary Islands, Spain (GCLP) 27-56N 015-23W 47M
Oct 15, 2021 - 11:00 PM EDT / 2021.10.16 0300 UTC
Wind: from the N (010 degrees) at 17 MPH (15 KT):0
Visibility: greater than 7 mile(s):0
Sky conditions: mostly cloudy
Temperature: 71 F (22 C)
Dew Point: 64 F (18 C)
Relative Humidity: 78%
Pressure (altimeter): 30.00 in. Hg (1016 hPa)
ob: GCLP 160300Z 01015KT 9999 BKN020 22/18 Q1016 NOSIG
cycle: 3
Hurguada, Egypt (HEGN) 27-09N 033-43E 14M
Oct 15, 2021 - 10:00 PM EDT / 2021.10.16 0200 UTC
Wind: from the W (280 degrees) at 8 MPH (7 KT):0
Visibility: greater than 7 mile(s):0
Temperature: 80 F (27 C)
Dew Point: 51 F (11 C)
Relative Humidity: 36%
Pressure (altimeter): 29.91 in. Hg (1013 hPa)
ob: HEGN 160200Z 28007KT CAVOK 27/11 Q1013 NOSIG
cycle: 2
Chicago / Meigs, IL, United States (KCGX) 41-52N 087-36W
Jun 18, 2008 - 01:45 PM EDT / 2008.06.18 1745 UTC
Wind: from the NW (310 degrees) at 6 MPH (5 KT):0
Visibility: 15 mile(s):0
Sky conditions: overcast
Temperature: 57 F (14 C)
Dew Point: 51 F (11 C)
Relative Humidity: 82%
Pressure (altimeter): 29.89 in. Hg (1012 hPa)
ob: KCGX 181745Z 31005KT 15SM BKN014 OVC030 14/11 A2989
cycle: 18
Paris-Aeroport Charles De Gaulle, France (LFPG) 49-01N 002-32E 109M
Oct 15, 2021 - 11:00 PM EDT / 2021.10.16 0300 UTC
Wind: from the E (100 degrees) at 3 MPH (3 KT):0
Visibility: greater than 7 mile(s):0
Sky conditions: mostly clear
Temperature: 46 F (8 C)
Dew Point: 44 F (7 C)
Relative Humidity: 93%
Pressure (altimeter): 30.15 in. Hg (1021 hPa)
ob: LFPG 160300Z 10003KT 9999 FEW048 08/07 Q1021 NOSIG
cycle: 3
Hyeres, France (LFTH) 43-06N 006-09E 4M
Oct 15, 2021 - 11:00 PM EDT / 2021.10.16 0300 UTC
Wind: from the NW (320 degrees) at 8 MPH (7 KT):0
Visibility: greater than 7 mile(s):0
Temperature: 55 F (13 C)
Dew Point: 51 F (11 C)
Relative Humidity: 87%
Pressure (altimeter): 29.97 in. Hg (1015 hPa)
ob: LFTH 160300Z AUTO 32007KT CAVOK 13/11 Q1015 NOSIG
cycle: 3



Die Wetterdaten werden alle 2 Minuten gespeichert, aber die Datenübertragung findet jede Minute statt. Die beste Ansicht wird in einer Auflösung von 800 x 600 und "True colour" erzielt. Linie zeigt die relative Luftfeuchtigkeit an.

Drücken Sie bitte auf "Aktualisieren" in Ihrem Browser, um die aktuellsten Daten zu erhalten.

Klicken Sie hier, um eine Übersicht der Durchschnitts- u. Extremwerte für den Monat zu erhalten
Created by "Weather Display" software version 10.37S at this start time/date 08:00:09 14.10.2021